Werte bis 5 Uhr SommerzeitDiagramme Vöhl: Tagesdaten MonatsdatenCSV-Datei: Voehl21.csv

Wetterdaten 2021 Station: Vöhl
Temperaturen in °C relative Nieder- Global- Wind Wind Wind- Sonnen-
Datum Boden Boden Luft Luft Luft Luft Feuchte schlag strahlung max richtung schein
20 cm 5 cm 20 cm 2 m 2 m max 2 m min % mm W/m2*d m/s m/s ° h

28.10.2021 8,5 8,3 5,9 6,5 7,4 5,7 100 0,0 0 1,4 2,7 --- ---
27.10.2021 8,1 8,5 9,3 9,3 12,8 6,3 96 0,0 800 2,9 6,6 --- 2,5
26.10.2021 7,4 7,8 9,5 9,5 13,1 7,1 91 0,2 1876 2,7 7,8 --- 6,5
25.10.2021 6,7 6,3 5,1 5,1 11,0 0,1 94 0,5 2019 2,1 6,9 --- 6,8
24.10.2021 7,2 6,3 3,5 3,4 11,3 -3,0 88 0,1 2887 1,9 8,9 --- 7,8
23.10.2021 8,1 7,5 4,8 5,0 11,1 0,2 87 0,1 2376 1,2 5,4 --- 7,9
22.10.2021 8,9 8,4 6,0 5,9 8,8 3,9 86 2,0 1359 2,6 12,8 --- 5,0
21.10.2021 10,2 10,5 9,4 9,4 14,3 4,4 87 9,5 1188 4,9 21,0 --- 2,4
20.10.2021 9,6 10,4 12,4 12,3 14,3 9,2 96 0,5 1225 5,2 13,4 --- 3,7
19.10.2021 8,7 9,0 9,5 9,3 12,3 7,1 99 0,0 723 4,3 10,0 --- 1,2
18.10.2021 8,3 7,8 5,4 5,1 9,0 -0,9 97 0,0 2121 2,7 8,2 --- 7,1
17.10.2021 8,5 8,2 5,8 5,9 12,4 -0,6 88 0,0 1673 0,6 3,8 --- 7,0
16.10.2021 8,8 8,2 4,7 4,8 12,0 -2,3 89 0,0 2741 0,8 3,4 --- 7,0
15.10.2021 9,8 9,9 8,7 8,7 12,1 2,3 91 0,6 1267 2,1 7,6 --- 4,3
14.10.2021 9,6 9,8 9,9 9,8 11,8 7,6 93 0,1 818 2,0 7,4 --- 1,4
13.10.2021 9,3 9,2 7,8 7,7 11,5 3,0 89 0,0 2053 1,0 6,4 --- 7,5
12.10.2021 9,5 9,5 7,8 7,6 10,8 5,2 95 6,0 1314 1,1 7,9 --- 4,7
11.10.2021 9,2 8,8 7,5 7,5 13,0 0,7 91 0,7 1771 1,0 6,5 --- 5,8
10.10.2021 9,6 8,7 4,7 5,4 15,3 -3,6 83 0,1 3179 0,7 3,6 --- 8,9
09.10.2021 10,6 10,2 7,3 8,1 15,7 3,9 84 0,0 3578 1,1 5,4 --- 8,4
08.10.2021 10,8 10,4 8,1 8,4 15,2 1,5 93 0,0 2652 1,0 5,9 --- 7,9
07.10.2021 11,4 11,5 9,7 10,0 15,0 5,2 92 0,1 1814 0,9 5,2 --- 6,0
06.10.2021 11,6 11,4 9,6 9,5 11,8 8,3 95 2,1 1763 3,4 9,0 --- 6,0
05.10.2021 11,8 11,7 10,4 10,3 14,1 8,0 95 2,9 1281 2,4 9,3 --- 4,2
04.10.2021 12,4 12,4 10,4 10,5 14,2 7,6 92 0,0 1459 2,0 7,8 --- 5,6
03.10.2021 12,3 13,0 16,0 16,3 19,7 11,9 77 1,2 1226 4,5 13,8 --- 4,3
02.10.2021 11,6 11,8 12,5 12,6 16,8 9,5 84 1,8 1447 3,1 10,9 --- 5,4
01.10.2021 11,4 11,1 10,4 10,5 16,6 4,0 77 0,0 3798 3,0 10,5 --- 8,7
30.09.2021 11,9 11,5 9,1 9,3 14,8 5,4 80 0,0 3628 2,4 8,0 --- 8,5
29.09.2021 12,9 12,4 8,9 8,9 13,4 5,8 92 4,8 1976 1,8 9,5 --- 6,3
28.09.2021 14,0 14,1 11,4 11,8 17,4 6,9 87 0,4 3368 1,0 6,5 --- 8,8
27.09.2021 14,4 15,2 15,7 15,6 19,3 11,5 93 0,8 1773 2,7 8,0 --- 5,2
26.09.2021 13,8 14,4 15,5 15,5 22,6 9,0 91 0,3 3071 1,9 9,8 --- 7,5
25.09.2021 13,6 14,2 14,5 15,0 23,3 9,9 87 0,0 3712 1,5 6,1 --- 8,7
24.09.2021 13,4 14,0 15,0 15,1 18,0 11,6 85 0,0 1524 1,3 6,6 --- 4,9
23.09.2021 12,7 12,8 13,7 13,8 20,7 6,9 78 0,0 4251 2,4 10,8 --- 9,5
22.09.2021 12,5 12,4 11,0 11,6 21,4 3,9 86 0,0 3631 0,7 4,7 --- 8,6
21.09.2021 12,7 12,5 9,8 10,1 16,5 4,8 82 0,0 3582 0,9 4,7 --- 8,9
20.09.2021 13,2 12,5 8,2 8,5 13,6 3,0 86 0,0 1735 0,9 5,2 --- 4,4
19.09.2021 14,3 14,1 11,2 11,2 14,4 8,8 88 0,0 1465 1,5 6,2 --- 5,7
18.09.2021 14,9 15,0 12,7 13,0 19,2 7,6 89 0,0 4018 1,0 5,8 --- 8,8
17.09.2021 15,3 15,6 14,0 14,3 18,7 11,6 87 0,0 2084 0,8 4,0 --- 7,6
16.09.2021 15,8 16,3 14,6 14,9 17,6 12,1 84 0,0 1943 0,8 5,7 --- 7,0
15.09.2021 15,8 16,6 17,0 17,2 20,0 14,4 97 0,5 1497 1,5 6,2 --- 6,8
14.09.2021 15,2 15,6 15,5 16,2 24,8 7,4 85 0,0 4732 1,0 5,7 --- 9,9
13.09.2021 15,6 15,7 13,1 13,6 20,5 7,7 88 0,0 3366 0,7 4,1 --- 9,2
12.09.2021 16,1 16,7 15,6 16,0 22,8 11,1 87 1,1 3680 1,0 7,1 --- 9,0
11.09.2021 16,3 17,1 16,7 17,1 21,5 11,6 88 1,2 3261 1,6 7,0 --- 8,8
10.09.2021 16,1 17,2 18,0 18,1 23,5 15,5 94 5,0 2615 1,8 6,2 --- 6,3
09.09.2021 15,2 15,9 17,5 18,1 26,2 8,3 81 0,2 4918 1,7 7,4 --- 9,6
08.09.2021 15,1 15,5 15,7 16,8 24,7 8,4 79 0,0 5336 1,1 6,0 --- 10,7
07.09.2021 15,0 15,6 15,3 16,2 23,8 10,1 80 0,0 4168 0,5 3,5 --- 10,3
06.09.2021 14,8 15,1 14,4 15,7 24,5 6,8 79 0,0 4848 0,8 4,7 --- 10,3
05.09.2021 14,7 15,0 13,6 14,6 23,8 5,5 81 0,0 5426 0,9 3,7 --- 10,6
04.09.2021 15,0 15,3 12,7 13,1 18,9 8,3 95 0,0 4395 1,2 5,0 --- 10,0
03.09.2021 14,8 15,4 15,0 16,1 25,0 8,1 82 0,0 5466 0,7 5,3 --- 10,6
02.09.2021 14,6 14,8 13,0 13,7 22,1 6,2 87 0,0 5188 1,0 6,7 --- 10,7
01.09.2021 15,0 15,3 13,1 13,7 18,3 9,0 88 0,0 3260 0,8 3,8 --- 10,5
31.08.2021 14,9 15,4 14,6 14,9 19,7 10,8 85 0,0 4607 1,4 8,3 --- 9,4
30.08.2021 14,8 15,2 14,7 14,8 17,4 12,9 92 0,1 2014 2,7 8,9 --- 6,5
29.08.2021 14,8 15,0 13,6 13,5 15,1 12,2 98 6,5 1396 1,8 7,6 --- 4,6
28.08.2021 14,7 14,9 12,9 13,0 17,1 8,9 92 9,8 2879 0,9 6,3 --- 7,9
27.08.2021 15,1 15,2 12,4 12,4 16,3 10,0 93 6,0 2206 1,1 6,8 --- 6,6
26.08.2021 15,4 15,8 13,9 13,9 20,2 10,3 86 1,8 3762 1,4 9,8 --- 7,8
25.08.2021 14,9 15,0 13,5 14,2 21,7 4,5 76 0,0 5761 1,0 6,9 --- 10,9
24.08.2021 15,4 15,3 12,6 13,2 18,7 7,7 82 0,0 4504 1,6 8,0 --- 10,8
23.08.2021 16,3 16,5 14,1 14,3 19,2 10,0 93 0,3 2141 1,3 5,8 --- 5,2
22.08.2021 16,5 17,3 16,8 17,2 21,8 13,9 86 1,5 3635 1,2 5,1 --- 10,2
21.08.2021 15,9 16,6 16,3 16,9 24,8 8,9 82 0,0 5066 0,9 5,9 --- 10,7
20.08.2021 15,9 16,5 15,7 16,3 22,1 11,3 84 0,0 3275 1,1 4,5 --- 9,6
19.08.2021 15,6 16,1 16,1 16,1 19,2 13,5 87 0,2 2145 1,6 6,2 --- 8,8
18.08.2021 15,2 15,5 14,7 14,6 19,1 11,4 88 0,6 2475 1,6 6,2 --- 7,6
17.08.2021 15,7 15,4 12,7 12,7 16,2 10,4 81 0,2 2580 2,0 8,7 --- 8,3
16.08.2021 16,9 17,0 14,5 14,7 20,1 10,5 83 0,6 2465 1,9 10,2 --- 7,3
15.08.2021 17,2 17,7 17,3 18,1 26,1 9,8 77 0,0 5141 1,3 6,9 --- 11,1
14.08.2021 17,5 18,2 18,1 18,9 27,0 10,1 72 0,0 6428 1,5 8,1 --- 12,1
13.08.2021 17,4 18,4 19,0 19,8 27,8 12,3 79 0,0 4899 1,1 6,8 --- 11,3
12.08.2021 16,8 17,6 17,8 18,5 25,9 10,0 80 0,0 5397 1,3 7,9 --- 11,5
11.08.2021 16,4 17,4 16,6 17,3 24,5 12,5 81 0,1 5440 0,9 5,1 --- 11,9
10.08.2021 15,7 16,1 15,2 15,3 21,9 8,9 86 7,1 5241 1,7 7,3 --- 9,9
09.08.2021 15,8 15,8 14,3 14,4 20,3 10,0 87 4,2 3566 2,3 8,0 --- 9,9
08.08.2021 16,3 16,6 14,8 14,8 19,2 10,6 83 0,1 4945 2,7 10,3 --- 11,4
07.08.2021 16,5 16,7 15,8 15,9 21,1 11,5 86 3,4 3642 2,6 8,4 --- 9,3
06.08.2021 16,9 17,2 15,7 15,8 21,7 10,3 89 0,3 3604 2,0 8,4 --- 9,0
05.08.2021 16,9 17,6 15,7 15,9 22,6 10,9 87 0,2 4729 1,0 4,9 --- 10,0
04.08.2021 16,6 17,2 15,5 15,5 20,8 12,4 89 0,0 4065 1,0 5,0 --- 10,0
03.08.2021 16,5 16,6 13,3 13,3 18,0 7,6 91 1,1 2993 0,7 4,2 --- 10,2
02.08.2021 16,9 17,3 14,7 14,9 19,5 10,8 84 0,4 3087 0,8 6,0 --- 9,4
01.08.2021 16,8 17,3 15,8 15,8 22,9 10,5 83 0,9 4851 1,2 6,8 --- 10,5
31.07.2021 17,0 17,2 16,0 16,2 20,3 12,3 73 0,0 4329 2,3 11,4 --- 10,5
30.07.2021 16,9 17,3 17,4 17,5 24,8 8,5 71 0,0 6820 2,2 10,8 --- 12,7
29.07.2021 17,3 17,5 15,7 16,0 20,5 11,6 74 0,0 4984 2,0 10,4 --- 12,0
28.07.2021 17,8 18,5 17,3 17,3 22,9 13,6 84 0,1 5472 2,6 8,9 --- 10,7
27.07.2021 18,0 18,8 17,7 17,7 24,5 13,7 86 1,5 5584 2,1 10,5 --- 10,6
26.07.2021 18,0 19,1 18,9 19,1 25,3 13,0 81 0,9 6914 1,8 10,4 --- 11,6
25.07.2021 17,6 18,6 18,6 18,9 25,3 12,9 84 0,8 6028 1,5 6,5 --- 11,6
24.07.2021 17,5 18,2 17,5 17,9 24,6 11,1 87 1,6 4001 1,4 6,0 --- 9,4
23.07.2021 17,3 18,2 17,0 17,8 24,8 10,9 81 0,0 7025 1,1 5,2 --- 12,6
22.07.2021 16,9 17,6 17,2 18,1 24,4 11,2 77 0,0 4282 0,6 3,3 --- 12,4
21.07.2021 16,6 16,9 14,3 15,0 22,6 6,4 82 0,0 4009 0,6 4,3 --- 11,6
20.07.2021 17,1 17,4 13,8 14,2 19,7 7,3 82 0,0 6079 1,1 6,0 --- 12,8
19.07.2021 17,9 18,6 15,7 15,9 19,6 11,6 84 0,0 3589 1,5 6,0 --- 9,8
18.07.2021 17,8 18,8 18,2 18,8 24,5 12,1 80 0,0 7625 1,6 8,9 --- 12,7
17.07.2021 17,6 18,7 18,2 18,4 23,5 15,0 84 0,0 6264 1,9 9,4 --- 11,7
16.07.2021 17,6 18,4 16,7 16,7 19,0 15,3 94 0,0 2624 1,6 6,1 --- 8,5
15.07.2021 17,1 18,2 17,7 18,1 24,4 13,3 84 0,0 5472 0,9 4,3 --- 11,6
14.07.2021 17,5 17,8 15,7 15,5 16,3 14,5 100 23,3 1056 2,4 8,7 --- 2,2
13.07.2021 17,7 18,6 17,7 17,8 22,6 14,8 96 27,1 2275 1,2 7,0 --- 7,6
12.07.2021 17,2 18,5 18,2 18,5 24,3 13,0 84 0,1 5850 0,9 5,1 --- 11,0
11.07.2021 17,1 17,7 15,9 15,9 18,9 13,6 97 9,6 1708 1,0 6,5 --- 5,5
10.07.2021 16,9 17,9 17,1 17,2 23,3 11,9 86 0,0 5166 1,3 5,8 --- 11,8
09.07.2021 17,1 17,7 15,6 15,7 19,6 14,1 93 0,5 1993 1,2 7,9 --- 7,9
08.07.2021 17,3 18,2 16,2 16,4 24,6 10,6 88 1,7 3877 0,8 6,0 --- 9,1
07.07.2021 17,0 18,1 17,0 17,2 22,8 11,7 80 0,0 6106 1,8 8,0 --- 11,2
06.07.2021 17,2 17,9 16,6 16,7 19,7 13,4 93 5,8 3209 2,6 11,2 --- 11,1
05.07.2021 17,0 17,6 16,0 15,9 19,7 10,9 93 1,9 3648 2,1 7,6 --- 9,3
04.07.2021 17,5 18,0 16,6 16,6 25,7 12,9 88 45,5 4023 1,0 16,6 --- 8,4
03.07.2021 16,7 17,9 16,2 16,9 25,8 7,0 77 0,0 6786 0,8 5,2 --- 12,1
02.07.2021 16,5 17,0 14,1 14,3 20,2 10,9 88 0,8 3090 0,7 4,9 --- 8,9
01.07.2021 17,6 17,5 13,1 13,0 14,1 12,1 94 3,4 1022 1,1 6,1 --- 1,9
30.06.2021 18,9 19,5 16,1 16,1 20,3 13,5 88 0,0 3779 1,5 6,6 --- 10,6
29.06.2021 19,4 20,9 18,8 18,7 24,6 15,0 91 13,0 4532 1,6 8,5 --- 10,6
28.06.2021 19,4 20,9 19,7 20,2 27,2 14,3 83 2,8 3856 1,0 6,6 --- 10,2
27.06.2021 18,8 20,9 19,3 19,2 25,4 11,1 74 0,0 7147 1,2 6,0 --- 12,6
26.06.2021 18,1 19,7 17,3 17,7 25,8 8,9 76 0,0 6857 0,8 4,2 --- 12,9
25.06.2021 17,7 19,1 16,8 17,0 22,4 12,5 81 2,1 5579 1,0 6,0 --- 12,6
24.06.2021 17,5 18,4 15,7 15,5 19,5 13,4 92 4,7 3183 1,5 5,0 --- 9,6
23.06.2021 17,6 18,3 15,1 15,0 19,4 11,2 89 0,0 4784 2,1 5,2 --- 11,4
22.06.2021 18,9 18,9 13,4 13,1 16,7 11,1 91 1,8 2800 1,9 6,4 --- 8,0
21.06.2021 20,9 22,1 18,3 18,0 22,7 12,8 88 12,1 4711 2,8 10,9 --- 10,2
20.06.2021 21,5 23,7 22,0 21,9 27,0 18,0 78 15,8 7151 2,2 10,4 --- 12,8
19.06.2021 21,3 24,2 24,2 24,2 30,7 17,0 68 0,0 7838 1,7 6,4 --- 12,8
18.06.2021 20,9 23,6 23,5 23,9 33,5 15,6 71 1,1 6686 1,0 6,0 --- 12,5
17.06.2021 20,0 23,2 24,4 24,5 32,0 14,7 66 0,0 8034 1,6 8,2 --- 13,0
16.06.2021 18,5 21,2 21,1 21,1 29,5 11,5 71 0,0 7636 1,2 6,8 --- 12,7
15.06.2021 18,1 20,0 18,5 18,0 24,3 10,8 77 0,0 6484 1,4 6,4 --- 12,7
14.06.2021 17,3 19,6 19,7 17,8 27,0 6,1 68 0,0 8259 1,5 6,8 --- 13,1
13.06.2021 17,0 18,4 15,4 14,4 20,6 9,2 68 0,0 7842 1,7 6,8 --- 12,9
12.06.2021 17,9 19,3 18,3 17,7 22,3 12,0 74 0,0 4718 1,7 10,1 --- 11,5
11.06.2021 17,9 20,0 20,5 19,3 26,7 10,8 73 0,0 6731 1,1 6,6 --- 12,8
10.06.2021 17,8 19,8 19,8 18,8 25,4 11,1 73 0,0 6905 1,3 7,2 --- 13,0
09.06.2021 17,2 19,9 20,7 19,1 26,2 13,2 76 0,0 7520 1,1 5,9 --- 13,1
08.06.2021 16,2 18,1 17,8 16,7 21,0 13,4 84 0,0 5147 1,2 5,3 --- 11,6
07.06.2021 16,0 17,2 16,1 15,5 19,1 13,3 89 0,0 3162 1,8 5,7 --- 10,6
06.06.2021 17,0 18,0 15,7 15,3 17,0 13,9 93 0,0 2099 1,6 7,1 --- 7,6
05.06.2021 17,2 19,8 19,0 18,0 24,6 14,6 89 1,1 4787 1,3 6,0 --- 10,7
04.06.2021 16,6 18,9 18,5 17,6 25,5 12,5 93 2,2 3843 0,8 4,8 --- 8,7
03.06.2021 16,5 18,6 18,2 17,5 25,8 9,2 78 6,9 3963 1,5 9,0 --- 7,7
02.06.2021 15,6 18,8 19,4 18,0 26,1 7,5 61 0,0 6757 1,6 8,2 --- 12,2
01.06.2021 14,3 16,7 17,4 15,8 23,4 5,9 57 0,0 6642 1,3 7,0 --- 12,8
31.05.2021 13,4 15,7 16,2 14,9 22,2 6,1 64 0,0 6468 1,4 6,5 --- 12,8
30.05.2021 12,8 14,5 13,3 12,4 19,5 3,5 72 0,0 5930 1,7 8,4 --- 12,4
29.05.2021 12,6 14,5 11,4 10,3 16,1 4,2 84 0,0 6471 1,9 8,3 --- 12,6
28.05.2021 11,6 13,8 12,2 11,4 17,0 7,6 77 0,2 6027 1,8 8,2 --- 11,0
27.05.2021 10,9 11,7 9,6 9,3 11,0 7,7 87 2,2 1961 1,8 9,0 --- 6,6
26.05.2021 11,0 11,8 9,1 8,7 13,3 5,6 89 0,4 3051 2,8 10,3 --- 10,3
25.05.2021 11,6 12,5 8,4 7,9 11,1 5,9 91 7,8 3892 3,3 12,8 --- 8,8
24.05.2021 11,4 12,9 11,8 11,2 18,2 2,7 76 0,5 6341 3,1 13,7 --- 11,6
23.05.2021 11,0 12,0 10,5 10,1 14,4 5,0 76 0,0 4738 2,8 10,9 --- 9,6
22.05.2021 11,5 11,9 9,3 9,1 12,4 5,8 88 2,1 3406 4,2 13,3 --- 11,0
21.05.2021 12,3 13,6 13,1 12,7 17,1 7,5 68 0,3 5331 4,0 16,5 --- 11,8
20.05.2021 12,0 13,8 12,2 11,2 16,9 6,4 76 1,1 4939 1,6 7,8 --- 10,9
19.05.2021 11,5 12,7 9,9 9,2 16,1 3,6 86 2,1 4177 1,8 8,2 --- 10,5
18.05.2021 11,5 12,8 10,4 9,8 14,0 5,5 84 3,4 4214 1,7 7,5 --- 10,2
17.05.2021 11,3 12,5 10,5 10,0 14,0 6,2 89 3,0 4116 2,9 10,0 --- 9,0
16.05.2021 11,2 12,5 10,5 9,8 15,1 6,5 88 3,3 3911 3,0 9,3 --- 10,6
15.05.2021 11,5 12,1 9,2 8,8 13,1 3,9 92 0,7 3727 2,7 12,6 --- 10,5
14.05.2021 12,1 13,6 12,0 11,4 16,0 6,0 81 0,0 3938 1,3 8,5 --- 10,5
13.05.2021 11,8 13,3 12,4 11,5 16,3 7,8 85 0,0 3600 1,0 6,3 --- 11,4
12.05.2021 11,6 13,2 12,9 12,5 14,7 9,6 77 0,1 3796 1,6 9,1 --- 10,6
11.05.2021 11,5 13,0 13,1 12,8 15,6 10,7 96 8,3 1689 1,1 4,2 --- 4,5
10.05.2021 11,2 13,4 17,5 17,5 21,8 12,0 68 3,1 3844 3,3 15,4 --- 9,3
09.05.2021 8,9 11,5 17,7 17,5 25,5 4,8 56 0,0 7292 4,2 14,5 --- 12,2
08.05.2021 7,5 8,3 8,7 8,3 13,4 -2,1 65 0,0 5336 3,3 12,1 --- 11,7
07.05.2021 7,4 8,4 5,9 5,5 10,1 1,5 75 1,6 4821 1,8 8,6 --- 10,4
06.05.2021 7,0 7,5 5,8 5,2 10,5 0,4 82 2,4 3376 2,3 7,7 --- 9,5
05.05.2021 7,3 7,7 6,2 6,0 8,4 2,3 75 1,3 4213 3,2 12,9 --- 10,3
04.05.2021 7,4 7,7 8,6 8,6 12,9 5,8 68 1,5 2795 5,9 18,6 --- 7,5
03.05.2021 7,4 8,0 7,5 6,9 12,6 -0,9 66 0,0 5069 2,7 10,3 --- 11,6
02.05.2021 7,9 8,1 6,1 5,8 8,8 2,2 74 0,0 2506 1,8 9,3 --- 7,8
01.05.2021 8,2 9,0 7,8 7,3 11,1 4,3 83 0,1 2780 1,1 4,7 --- 8,5
30.04.2021 8,5 8,8 7,0 6,5 9,6 4,8 83 0,1 1657 1,3 7,1 --- 6,0
29.04.2021 9,3 10,7 9,3 9,0 13,7 5,4 84 4,7 4414 3,3 17,0 --- 8,6
28.04.2021 8,2 9,7 11,5 10,4 17,9 -0,6 56 0,3 5709 1,8 10,2 --- 11,3
27.04.2021 7,7 8,7 8,2 6,8 13,6 -1,1 52 0,0 6960 1,7 7,7 --- 11,5
26.04.2021 7,3 8,3 6,3 5,1 12,8 -3,1 59 0,0 7201 1,4 7,2 --- 12,3
25.04.2021 7,4 7,9 4,3 3,7 9,2 -1,2 73 0,0 5768 2,3 8,7 --- 11,9
24.04.2021 7,7 8,7 5,9 5,4 11,8 -0,5 75 0,0 6332 1,8 7,1 --- 11,8
23.04.2021 7,5 8,4 5,5 5,2 11,3 -1,6 75 0,0 6007 1,6 8,9 --- 11,1
22.04.2021 8,1 8,8 5,3 4,9 9,5 -0,6 69 0,0 5758 2,3 9,1 --- 10,7
21.04.2021 8,2 9,8 9,4 9,1 15,6 1,7 76 0,0 6081 2,2 9,9 --- 11,4
20.04.2021 7,4 9,0 8,4 7,6 17,0 0,0 86 10,8 4960 1,2 5,9 --- 9,7
19.04.2021 6,7 8,1 8,0 7,4 12,0 4,6 89 0,3 2801 1,0 4,8 --- 9,3
18.04.2021 5,6 6,7 7,5 7,3 12,5 3,2 86 6,9 2490 1,5 10,1 --- 7,5
17.04.2021 5,2 5,4 4,6 4,7 7,5 -0,9 72 0,1 1732 1,6 8,4 --- 6,6
16.04.2021 5,1 5,7 5,1 4,7 9,1 0,0 68 0,0 4212 2,5 8,9 --- 10,2
15.04.2021 5,0 5,3 2,5 2,1 6,5 -2,2 82 0,6 4066 1,9 9,3 --- 10,8
14.04.2021 5,1 5,3 2,0 1,4 6,3 -2,4 88 0,6 3837 1,5 8,2 --- 9,7
13.04.2021 5,4 5,7 2,0 1,6 7,2 -4,2 81 1,2 4106 1,6 8,8 --- 9,9
12.04.2021 5,5 5,9 2,8 2,1 6,2 -1,6 84 0,1 4093 1,7 8,9 --- 10,5
11.04.2021 6,1 6,6 5,2 5,1 9,7 0,4 98 14,5 957 2,1 6,8 --- 1,7
10.04.2021 5,8 6,7 6,5 6,1 8,0 3,9 95 10,9 1680 1,9 8,4 --- 5,1
09.04.2021 4,6 5,5 6,3 6,0 12,3 -1,4 67 0,0 5296 2,5 11,8 --- 11,1
08.04.2021 4,2 4,5 2,4 1,9 4,9 -0,7 76 0,2 3367 1,7 8,0 --- 9,6
07.04.2021 4,5 4,3 0,5 0,2 3,7 -2,2 88 5,4 1892 2,0 9,6 --- 5,6
06.04.2021 4,9 4,7 0,2 -0,3 3,1 -2,0 87 1,4 3710 2,2 10,9 --- 8,0
05.04.2021 5,8 5,4 1,6 1,4 4,3 -2,3 86 2,8 2534 3,1 13,3 --- 6,6
04.04.2021 6,5 6,7 4,2 3,7 8,7 0,3 79 0,0 3253 1,4 6,5 --- 8,6
03.04.2021 7,0 7,2 4,7 4,3 8,7 0,0 78 0,3 4452 2,5 9,9 --- 10,9
02.04.2021 8,1 8,5 5,8 5,1 9,1 3,3 79 0,0 3533 2,7 12,2 --- 7,2
01.04.2021 8,5 10,0 11,4 11,3 20,9 3,7 70 0,0 4853 2,0 10,2 --- 9,3
31.03.2021 7,7 9,3 13,2 13,1 23,1 1,1 59 0,0 5424 1,8 7,3 --- 10,7
30.03.2021 7,0 8,4 12,4 11,9 22,5 0,1 51 0,0 5478 0,9 4,3 --- 10,6
29.03.2021 6,1 7,7 12,4 12,5 20,0 5,5 53 0,0 4954 2,8 9,0 --- 10,3
28.03.2021 5,1 5,6 6,8 6,7 12,0 0,1 74 0,0 3195 3,5 11,9 --- 8,5
27.03.2021 5,9 6,4 5,0 5,1 8,4 0,9 78 1,3 2913 2,6 12,9 --- 8,0
26.03.2021 5,8 7,2 9,6 9,5 13,6 5,4 79 0,0 4280 3,2 10,6 --- 9,6
25.03.2021 4,9 5,7 7,3 7,3 14,2 -0,1 82 0,0 2432 1,1 5,7 --- 7,3
24.03.2021 4,2 5,0 6,6 6,3 13,6 -1,4 81 0,0 4954 2,8 8,0 --- 10,0
23.03.2021 4,0 4,7 5,3 5,0 9,7 2,3 79 0,0 2034 1,1 4,8 --- 7,0
22.03.2021 3,6 4,0 3,2 3,0 4,9 0,9 91 0,7 1605 2,1 9,4 --- 6,1
21.03.2021 3,5 4,1 4,0 3,8 5,5 2,2 82 0,0 1916 2,3 12,9 --- 7,9
20.03.2021 2,9 3,1 1,3 0,1 4,6 -5,0 63 0,0 3989 1,2 5,1 --- 9,1
19.03.2021 3,1 3,3 1,1 0,8 4,7 -1,3 87 3,0 3418 2,8 10,3 --- 7,7
18.03.2021 2,8 2,7 0,8 0,5 5,7 -3,7 90 0,4 2382 0,9 7,7 --- 6,0
17.03.2021 3,5 3,3 0,9 1,0 2,5 -2,5 85 0,0 1206 1,5 7,8 --- 4,6
16.03.2021 3,8 4,1 3,5 3,4 7,5 0,6 82 0,4 2431 2,0 8,9 --- 6,3
15.03.2021 3,8 4,2 3,2 3,1 6,4 1,2 91 4,9 2103 2,6 12,9 --- 6,2
14.03.2021 3,7 4,0 3,4 3,4 6,3 1,1 88 1,7 2398 2,1 9,4 --- 7,0
13.03.2021 3,9 4,2 3,6 3,7 5,7 1,5 93 14,9 1496 5,4 16,0 --- 4,2
12.03.2021 3,9 4,5 4,9 5,0 8,0 2,2 80 3,3 2400 4,1 15,4 --- 6,8
11.03.2021 3,5 4,4 6,8 6,9 12,1 3,8 83 3,6 1834 6,1 17,0 --- 4,6
10.03.2021 2,6 3,3 3,7 3,5 6,2 -0,3 92 0,2 2000 2,7 9,8 --- 7,1
09.03.2021 2,1 2,2 1,2 1,0 3,1 -1,4 99 4,0 985 1,7 7,0 --- 2,8
08.03.2021 2,0 1,9 1,3 1,1 3,5 -1,0 90 0,0 1346 1,2 5,6 --- 5,2
07.03.2021 2,0 1,3 -1,0 -1,2 3,9 -7,1 85 0,1 3863 1,3 8,1 --- 9,5
06.03.2021 2,6 1,8 -1,0 -1,3 4,9 -7,1 81 0,0 4081 0,8 5,7 --- 9,5
05.03.2021 3,8 3,6 0,8 0,6 3,3 -4,0 82 0,1 2914 2,6 8,8 --- 8,2
04.03.2021 4,1 4,6 4,4 4,5 7,3 1,3 96 6,7 727 1,6 7,0 --- 1,8
03.03.2021 3,7 3,9 4,9 5,2 13,3 -2,2 86 0,0 2629 1,5 7,8 --- 7,8
02.03.2021 3,6 3,8 3,8 3,3 13,2 -3,6 87 0,1 3852 0,9 3,8 --- 9,1
01.03.2021 3,9 4,0 2,4 2,0 8,8 -0,4 99 0,0 1666 1,0 4,2 --- 6,2
28.02.2021 4,1 4,5 3,1 3,0 8,0 -0,4 95 0,0 2586 1,2 4,9 --- 7,8
27.02.2021 4,3 4,2 2,0 2,0 5,6 -2,1 96 0,0 1502 1,3 6,8 --- 4,5
26.02.2021 5,5 6,0 5,4 5,7 8,6 1,8 89 3,6 1112 1,4 8,6 --- 3,8
25.02.2021 5,4 6,8 11,4 11,6 16,7 7,7 78 0,0 2992 2,7 8,4 --- 7,8
24.02.2021 4,5 5,8 9,9 10,3 15,7 3,3 86 0,0 2894 3,0 8,2 --- 8,0
23.02.2021 3,6 4,9 9,0 9,2 15,3 4,1 83 0,0 2725 3,2 11,5 --- 7,2
22.02.2021 2,8 3,4 5,1 5,3 11,8 -2,0 87 0,0 2759 2,5 7,7 --- 7,4
21.02.2021 2,5 3,5 7,7 8,2 14,6 1,2 78 0,0 3203 2,9 9,5 --- 8,3
20.02.2021 1,6 2,5 6,5 7,0 12,8 1,5 88 0,0 2713 2,5 8,6 --- 7,2
19.02.2021 1,0 1,0 3,3 3,7 5,8 -0,1 92 0,0 2593 2,6 7,7 --- 7,7
18.02.2021 0,7 0,6 2,2 2,4 5,6 -1,7 96 2,4 989 1,3 4,7 --- 4,5
17.02.2021 0,5 0,4 3,7 4,2 7,9 1,8 94 1,0 1893 2,4 6,7 --- 6,6
16.02.2021 0,4 0,2 1,2 1,2 3,2 -1,3 99 12,6 1333 3,8 8,9 --- 5,4
15.02.2021 0,5 0,2 -3,9 -3,8 -0,5 -9,3 77 0,0 851 4,8 11,9 --- 3,0
14.02.2021 0,6 0,2 -11,6 -11,3 -1,2 -20,0 82 0,1 2947 0,9 5,7 --- 8,5
13.02.2021 0,7 0,4 -12,1 -11,3 4,2 -17,4 84 8,2 3236 0,5 2,4 --- 8,3
12.02.2021 0,9 0,7 -12,1 -11,0 -5,5 -16,9 93 0,0 2352 1,2 7,9 --- 6,8
11.02.2021 1,0 0,8 -7,6 -7,1 -3,7 -12,9 86 0,0 2127 1,3 5,2 --- 6,9
10.02.2021 1,1 0,8 -12,5 -11,7 -6,0 -20,0 93 0,0 1533 1,7 5,5 --- 6,0
09.02.2021 1,4 1,2 -13,9 -12,9 -8,6 -18,8 89 0,0 2451 1,0 4,2 --- 7,0
08.02.2021 1,7 1,4 -8,5 -9,3 -7,9 -11,4 91 0,0 1417 2,6 6,6 --- 6,3
07.02.2021 2,1 1,8 -5,3 -5,7 -2,3 -8,0 97 0,0 552 3,7 10,4 --- 1,4
06.02.2021 2,8 3,0 1,2 1,0 3,7 -2,3 100 2,8 248 2,5 7,6 --- ---
05.02.2021 2,8 3,0 2,9 2,9 4,3 1,2 98 5,9 337 1,1 4,9 --- ---
04.02.2021 3,1 4,0 4,8 5,1 7,9 0,4 89 0,6 1603 1,4 7,6 --- 4,8
03.02.2021 2,0 3,3 6,8 7,2 9,2 5,6 98 3,7 404 3,2 9,7 --- 0,4
02.02.2021 0,5 0,6 2,9 3,0 6,5 0,5 99 2,1 440 2,6 7,3 --- 0,1
01.02.2021 0,4 0,1 -0,3 -0,6 1,1 -2,2 99 0,2 488 2,3 5,5 --- 0,4
31.01.2021 0,7 0,2 -2,2 -2,7 0,4 -6,8 90 0,0 2255 1,7 6,5 --- 7,3
30.01.2021 1,0 1,0 -0,1 -0,3 5,3 -2,4 92 0,6 792 2,7 8,7 --- 3,1
29.01.2021 1,0 0,9 2,3 2,4 7,3 -0,4 97 15,5 631 1,5 7,0 --- 1,3
28.01.2021 1,0 0,9 0,6 0,4 1,1 -0,3 100 5,5 174 2,1 7,5 --- ---
27.01.2021 0,9 0,7 -0,6 -0,6 0,8 -2,3 99 0,7 710 4,0 8,9 --- 2,5
26.01.2021 0,9 0,6 -0,3 -0,3 3,2 -2,5 95 2,2 1164 2,5 7,2 --- 4,2
25.01.2021 1,2 0,8 -2,6 -2,9 2,9 -5,0 96 0,5 1182 0,8 5,7 --- 5,6
24.01.2021 1,6 1,4 -0,3 -0,4 1,0 -3,2 98 4,4 399 1,1 6,3 --- 0,4
23.01.2021 1,9 1,5 0,0 0,1 1,8 -1,9 99 0,1 414 1,8 8,2 --- 0,2
22.01.2021 2,6 3,2 3,2 3,3 7,1 -1,5 97 6,4 571 3,3 15,6 --- 1,3
21.01.2021 1,6 2,1 4,7 5,0 7,3 3,0 85 4,0 834 5,9 15,8 --- 2,9
20.01.2021 0,8 1,0 2,5 2,7 5,5 0,2 89 0,0 1231 5,3 11,1 --- 4,4
19.01.2021 0,6 0,4 1,2 1,4 3,3 -0,1 99 5,3 434 5,7 13,8 --- 0,5
18.01.2021 0,5 0,2 1,0 1,2 2,5 -0,2 97 2,6 568 2,2 6,2 --- 0,5
17.01.2021 0,5 0,2 -2,1 -2,5 0,6 -4,0 97 0,0 681 2,2 6,7 --- 2,3
16.01.2021 0,6 0,2 -2,6 -2,8 -1,2 -3,6 84 0,0 426 1,9 6,3 --- ---
15.01.2021 0,8 0,3 -1,7 -1,8 -0,6 -4,1 91 0,0 326 1,7 6,8 --- 0,1
14.01.2021 0,9 0,5 -0,7 -0,9 0,9 -1,9 86 0,0 503 2,0 11,1 --- 1,1
13.01.2021 1,0 0,6 0,8 1,2 2,7 -0,4 85 0,7 707 2,1 13,0 --- 1,7
12.01.2021 1,1 0,9 0,6 0,8 2,7 -0,4 98 4,6 576 4,3 11,8 --- 1,6
11.01.2021 1,3 0,8 -1,3 -1,4 -0,1 -2,5 93 0,0 719 4,6 10,5 --- 3,0
10.01.2021 1,5 1,2 -1,0 -1,1 1,0 -2,9 97 0,0 707 1,4 4,0 --- 3,0
09.01.2021 1,5 1,3 -0,9 -1,0 0,5 -2,0 93 0,3 561 0,9 5,4 --- 1,2
08.01.2021 1,5 1,3 -0,3 -0,5 1,5 -1,2 97 1,8 588 1,2 5,4 --- 1,7
07.01.2021 1,5 1,2 -0,5 -0,7 0,7 -1,4 97 0,0 527 2,0 5,5 --- 1,5
06.01.2021 1,6 1,3 -0,1 -0,1 0,4 -1,2 99 1,2 221 1,8 6,4 --- ---
05.01.2021 1,6 1,3 -0,5 -0,7 -0,2 -1,1 100 0,0 201 2,7 6,5 --- ---
04.01.2021 1,7 1,4 -0,7 -0,9 -0,5 -1,2 100 0,0 240 1,9 4,0 --- ---
03.01.2021 1,8 1,4 0,0 -0,1 0,5 -1,1 94 0,0 248 3,1 9,1 --- ---
02.01.2021 1,8 1,5 0,3 0,2 1,5 -0,7 97 0,0 365 1,3 4,9 --- ---
01.01.2021 1,9 1,6 0,1 0,0 1,8 -1,4 99 1,3 475 0,5 3,5 --- 0,8

Mittelwerte (Temperaturen, Strahlung, rel. Feuchte, Wind), Summe (Regen) für 2021
10,0 10,6 9,4 9,3 85 529 3.315 1,9

Landesbetrieb Landwirtschaft Hessen 2009

      Werte bis 5 Uhr SommerzeitCSV-Datei: Voehl21.csvDiagramm: Voehl